Estación Meteorológica Peña el Pijo (Robertgarden) [ 10/21/17 19:49:17 CEST ]

Fecha Hora Presion(HPa) Temp (°C) Humedad % Rocio (°C) Viento ( m/s) Direccion Lluvia 1Hora(mm) Lluvia 24H(mm) LLuvia Total(mm)
2017-Oct-19 01:01:52 1005.900 7.9 83 5.2     3.62 5.18 1462.83
2017-Oct-19 02:01:38 1005.000 7.2 85 4.8     3.62 8.80 1466.45
2017-Oct-19 03:03:08 1004.400 7.2 86 5.0       8.80 1466.45
2017-Oct-19 04:01:53 1004.000 7.1 86 4.9       8.80 1466.45
2017-Oct-19 05:01:44 1003.400 7.2 87 5.2       8.80 1466.45
2017-Oct-19 06:01:48 1003.000 7.3 87 5.3       8.80 1466.45
2017-Oct-19 07:01:59 1003.100 7.1 88 5.3       8.80 1466.45
2017-Oct-19 08:01:57 1003.100 6.0 87 4.0       8.80 1466.45
2017-Oct-19 09:01:44 1003.700 5.4 88 3.6       8.80 1466.45
2017-Oct-19 10:02:08 1004.100 9.5 90 7.9       8.80 1466.45
2017-Oct-19 11:01:58 1004.700 10.7 84 8.1       8.28 1466.45
2017-Oct-19 12:01:51 1004.600 14.9 67 8.8       8.28 1466.45
2017-Oct-19 13:01:38 1004.600 17.0 53 7.3       8.28 1466.45
2017-Oct-19 14:01:44 1004.100 16.6 50 6.1       8.28 1466.45
2017-Oct-19 15:01:41 1004.000 15.8 46 4.1       8.28 1466.45
2017-Oct-19 16:01:39 1003.900 15.6 49 4.9       8.28 1466.45
2017-Oct-19 17:01:33 1004.400 14.9 49 4.3       8.28 1466.45
2017-Oct-19 18:01:37 1004.500 14.9 50 4.6 1.4 WNW   8.28 1466.45
2017-Oct-19 19:01:43 1005.000 12.8 57 4.4       8.28 1466.45
2017-Oct-19 20:01:35 1006.100 10.9 63 4.1       8.28 1466.45
2017-Oct-19 21:01:56 1006.300 10.9 68 5.2       8.28 1466.45
2017-Oct-19 22:01:43 1007.400 11.4 67 5.5       7.77 1466.45
2017-Oct-19 23:01:31 1007.900 11.1 66 5.0       7.25 1466.45

Temperatura Máxima:17°    Temperatura Mínima:
Presión Máxima:1007.900 Hpa    Presión Mínima:1003.000 Hpa


Volver